sensor_id;sensor_type;location;lat;lon;timestamp;P1;durP1;ratioP1;P2;durP2;ratioP2
41837;SDS011;27511;52.042;5.178;2023-12-07T00:00:34;14.70;;;9.23;;
41837;SDS011;27511;52.042;5.178;2023-12-07T00:03:00;17.45;;;8.70;;
41837;SDS011;27511;52.042;5.178;2023-12-07T00:05:25;14.18;;;9.20;;
41837;SDS011;27511;52.042;5.178;2023-12-07T00:07:51;15.40;;;9.15;;
41837;SDS011;27511;52.042;5.178;2023-12-07T00:10:17;12.35;;;7.18;;
41837;SDS011;27511;52.042;5.178;2023-12-07T00:12:42;13.57;;;7.80;;
41837;SDS011;27511;52.042;5.178;2023-12-07T00:15:08;11.48;;;7.35;;
41837;SDS011;27511;52.042;5.178;2023-12-07T00:17:33;10.10;;;6.10;;
41837;SDS011;27511;52.042;5.178;2023-12-07T00:19:59;12.43;;;7.20;;
41837;SDS011;27511;52.042;5.178;2023-12-07T00:22:24;10.10;;;6.80;;
41837;SDS011;27511;52.042;5.178;2023-12-07T00:24:51;14.05;;;7.28;;
41837;SDS011;27511;52.042;5.178;2023-12-07T00:27:17;11.05;;;6.95;;
41837;SDS011;27511;52.042;5.178;2023-12-07T00:29:43;10.43;;;6.10;;
41837;SDS011;27511;52.042;5.178;2023-12-07T00:32:08;11.73;;;6.68;;
41837;SDS011;27511;52.042;5.178;2023-12-07T00:34:34;12.55;;;6.63;;
41837;SDS011;27511;52.042;5.178;2023-12-07T00:37:00;14.40;;;7.38;;
41837;SDS011;27511;52.042;5.178;2023-12-07T00:39:26;10.23;;;7.15;;
41837;SDS011;27511;52.042;5.178;2023-12-07T00:41:51;10.60;;;6.60;;
41837;SDS011;27511;52.042;5.178;2023-12-07T00:44:17;12.27;;;5.57;;
41837;SDS011;27511;52.042;5.178;2023-12-07T00:46:43;10.88;;;6.43;;
41837;SDS011;27511;52.042;5.178;2023-12-07T00:49:08;11.48;;;6.80;;
41837;SDS011;27511;52.042;5.178;2023-12-07T00:51:34;11.55;;;6.75;;
41837;SDS011;27511;52.042;5.178;2023-12-07T00:54:00;11.35;;;7.32;;
41837;SDS011;27511;52.042;5.178;2023-12-07T00:56:26;11.02;;;5.63;;
41837;SDS011;27511;52.042;5.178;2023-12-07T00:58:51;11.55;;;5.88;;
41837;SDS011;27511;52.042;5.178;2023-12-07T01:01:17;10.60;;;6.30;;
41837;SDS011;27511;52.042;5.178;2023-12-07T01:03:42;12.50;;;6.35;;
41837;SDS011;27511;52.042;5.178;2023-12-07T01:06:08;14.38;;;6.85;;
41837;SDS011;27511;52.042;5.178;2023-12-07T01:08:36;10.05;;;6.25;;
41837;SDS011;27511;52.042;5.178;2023-12-07T01:11:02;8.77;;;5.95;;
41837;SDS011;27511;52.042;5.178;2023-12-07T01:13:28;10.68;;;5.57;;
41837;SDS011;27511;52.042;5.178;2023-12-07T01:15:53;12.02;;;5.90;;
41837;SDS011;27511;52.042;5.178;2023-12-07T01:18:20;9.18;;;5.68;;
41837;SDS011;27511;52.042;5.178;2023-12-07T01:20:45;12.50;;;7.13;;
41837;SDS011;27511;52.042;5.178;2023-12-07T01:23:11;10.60;;;6.75;;
41837;SDS011;27511;52.042;5.178;2023-12-07T01:25:36;8.57;;;5.72;;
41837;SDS011;27511;52.042;5.178;2023-12-07T01:28:02;7.88;;;5.85;;
41837;SDS011;27511;52.042;5.178;2023-12-07T01:30:28;11.73;;;5.60;;
41837;SDS011;27511;52.042;5.178;2023-12-07T01:32:54;9.68;;;5.70;;
41837;SDS011;27511;52.042;5.178;2023-12-07T01:35:20;8.32;;;5.78;;
41837;SDS011;27511;52.042;5.178;2023-12-07T01:37:46;11.25;;;5.75;;
41837;SDS011;27511;52.042;5.178;2023-12-07T01:40:11;13.13;;;6.05;;
41837;SDS011;27511;52.042;5.178;2023-12-07T01:42:37;9.77;;;5.20;;
41837;SDS011;27511;52.042;5.178;2023-12-07T01:45:04;9.82;;;6.13;;
41837;SDS011;27511;52.042;5.178;2023-12-07T01:47:30;8.50;;;5.18;;
41837;SDS011;27511;52.042;5.178;2023-12-07T01:49:57;12.98;;;6.15;;
41837;SDS011;27511;52.042;5.178;2023-12-07T01:52:25;11.00;;;5.60;;
41837;SDS011;27511;52.042;5.178;2023-12-07T01:54:53;9.77;;;5.55;;
41837;SDS011;27511;52.042;5.178;2023-12-07T01:57:19;8.85;;;5.57;;
41837;SDS011;27511;52.042;5.178;2023-12-07T01:59:45;11.93;;;5.80;;
41837;SDS011;27511;52.042;5.178;2023-12-07T02:02:11;9.73;;;5.45;;
41837;SDS011;27511;52.042;5.178;2023-12-07T02:04:36;8.55;;;5.25;;
41837;SDS011;27511;52.042;5.178;2023-12-07T02:07:02;9.40;;;5.60;;
41837;SDS011;27511;52.042;5.178;2023-12-07T02:09:29;9.48;;;5.50;;
41837;SDS011;27511;52.042;5.178;2023-12-07T02:11:55;11.90;;;5.82;;
41837;SDS011;27511;52.042;5.178;2023-12-07T02:14:20;9.27;;;5.78;;
41837;SDS011;27511;52.042;5.178;2023-12-07T02:20:16;11.07;;;6.07;;
41837;SDS011;27511;52.042;5.178;2023-12-07T02:23:02;10.55;;;5.25;;
41837;SDS011;27511;52.042;5.178;2023-12-07T02:25:35;10.57;;;5.63;;
41837;SDS011;27511;52.042;5.178;2023-12-07T02:28:05;8.35;;;5.55;;
41837;SDS011;27511;52.042;5.178;2023-12-07T02:30:31;12.48;;;6.38;;
41837;SDS011;27511;52.042;5.178;2023-12-07T02:32:57;11.63;;;6.43;;
41837;SDS011;27511;52.042;5.178;2023-12-07T02:35:23;10.60;;;6.68;;
41837;SDS011;27511;52.042;5.178;2023-12-07T02:37:49;12.80;;;6.68;;
41837;SDS011;27511;52.042;5.178;2023-12-07T02:40:23;10.20;;;7.38;;
41837;SDS011;27511;52.042;5.178;2023-12-07T02:42:51;14.38;;;6.85;;
41837;SDS011;27511;52.042;5.178;2023-12-07T02:45:18;11.18;;;6.93;;
41837;SDS011;27511;52.042;5.178;2023-12-07T02:47:43;12.88;;;7.53;;
41837;SDS011;27511;52.042;5.178;2023-12-07T02:50:10;13.82;;;7.22;;
41837;SDS011;27511;52.042;5.178;2023-12-07T02:52:37;15.40;;;8.05;;
41837;SDS011;27511;52.042;5.178;2023-12-07T02:55:03;19.08;;;7.90;;
41837;SDS011;27511;52.042;5.178;2023-12-07T02:57:29;12.88;;;7.97;;
41837;SDS011;27511;52.042;5.178;2023-12-07T02:59:55;13.77;;;7.50;;
41837;SDS011;27511;52.042;5.178;2023-12-07T03:02:21;13.23;;;7.63;;
41837;SDS011;27511;52.042;5.178;2023-12-07T03:04:46;18.55;;;7.15;;
41837;SDS011;27511;52.042;5.178;2023-12-07T03:07:12;16.60;;;8.52;;
41837;SDS011;27511;52.042;5.178;2023-12-07T03:09:38;13.07;;;7.03;;
41837;SDS011;27511;52.042;5.178;2023-12-07T03:12:04;15.48;;;7.10;;
41837;SDS011;27511;52.042;5.178;2023-12-07T03:14:30;14.35;;;8.10;;
41837;SDS011;27511;52.042;5.178;2023-12-07T03:16:55;16.05;;;8.15;;
41837;SDS011;27511;52.042;5.178;2023-12-07T03:19:21;18.95;;;7.70;;
41837;SDS011;27511;52.042;5.178;2023-12-07T03:21:46;11.73;;;7.60;;
41837;SDS011;27511;52.042;5.178;2023-12-07T03:24:12;16.63;;;8.32;;
41837;SDS011;27511;52.042;5.178;2023-12-07T03:26:38;13.68;;;7.80;;
41837;SDS011;27511;52.042;5.178;2023-12-07T03:29:03;14.35;;;6.20;;
41837;SDS011;27511;52.042;5.178;2023-12-07T03:31:29;17.02;;;7.47;;
41837;SDS011;27511;52.042;5.178;2023-12-07T03:33:55;10.52;;;6.43;;
41837;SDS011;27511;52.042;5.178;2023-12-07T03:36:21;12.77;;;6.93;;
41837;SDS011;27511;52.042;5.178;2023-12-07T03:38:47;11.75;;;6.35;;
41837;SDS011;27511;52.042;5.178;2023-12-07T03:41:13;10.73;;;6.30;;
41837;SDS011;27511;52.042;5.178;2023-12-07T03:43:38;11.43;;;7.15;;
41837;SDS011;27511;52.042;5.178;2023-12-07T03:46:04;16.23;;;6.43;;
41837;SDS011;27511;52.042;5.178;2023-12-07T03:48:31;10.00;;;7.00;;
41837;SDS011;27511;52.042;5.178;2023-12-07T03:50:57;11.23;;;6.45;;
41837;SDS011;27511;52.042;5.178;2023-12-07T03:53:23;9.45;;;6.30;;
41837;SDS011;27511;52.042;5.178;2023-12-07T03:55:49;9.98;;;5.95;;
41837;SDS011;27511;52.042;5.178;2023-12-07T03:58:14;9.20;;;5.90;;
41837;SDS011;27511;52.042;5.178;2023-12-07T04:00:41;9.75;;;6.32;;
41837;SDS011;27511;52.042;5.178;2023-12-07T04:03:06;8.30;;;5.57;;
41837;SDS011;27511;52.042;5.178;2023-12-07T04:05:32;8.95;;;5.53;;
41837;SDS011;27511;52.042;5.178;2023-12-07T04:07:58;7.95;;;5.30;;
41837;SDS011;27511;52.042;5.178;2023-12-07T04:10:23;8.80;;;6.10;;
41837;SDS011;27511;52.042;5.178;2023-12-07T04:12:49;10.90;;;5.80;;
41837;SDS011;27511;52.042;5.178;2023-12-07T04:15:15;9.13;;;6.03;;
41837;SDS011;27511;52.042;5.178;2023-12-07T04:17:40;11.30;;;6.47;;
41837;SDS011;27511;52.042;5.178;2023-12-07T04:20:06;7.85;;;5.97;;
41837;SDS011;27511;52.042;5.178;2023-12-07T04:22:32;12.73;;;6.50;;
41837;SDS011;27511;52.042;5.178;2023-12-07T04:24:58;10.43;;;6.13;;
41837;SDS011;27511;52.042;5.178;2023-12-07T04:27:23;10.30;;;7.47;;
41837;SDS011;27511;52.042;5.178;2023-12-07T04:29:49;12.10;;;6.65;;
41837;SDS011;27511;52.042;5.178;2023-12-07T04:32:15;14.77;;;6.80;;
41837;SDS011;27511;52.042;5.178;2023-12-07T04:34:40;10.07;;;6.53;;
41837;SDS011;27511;52.042;5.178;2023-12-07T04:37:06;12.85;;;6.88;;
41837;SDS011;27511;52.042;5.178;2023-12-07T04:39:31;13.52;;;7.03;;
41837;SDS011;27511;52.042;5.178;2023-12-07T04:41:57;12.77;;;7.05;;
41837;SDS011;27511;52.042;5.178;2023-12-07T04:44:22;13.32;;;7.35;;
41837;SDS011;27511;52.042;5.178;2023-12-07T04:46:50;13.13;;;7.60;;
41837;SDS011;27511;52.042;5.178;2023-12-07T04:49:16;13.43;;;8.23;;
41837;SDS011;27511;52.042;5.178;2023-12-07T04:51:41;17.33;;;8.10;;
41837;SDS011;27511;52.042;5.178;2023-12-07T04:54:11;15.63;;;7.22;;
41837;SDS011;27511;52.042;5.178;2023-12-07T04:56:37;19.15;;;8.48;;
41837;SDS011;27511;52.042;5.178;2023-12-07T04:59:04;17.13;;;8.13;;
41837;SDS011;27511;52.042;5.178;2023-12-07T05:01:29;13.20;;;7.32;;
41837;SDS011;27511;52.042;5.178;2023-12-07T05:03:55;13.23;;;7.78;;
41837;SDS011;27511;52.042;5.178;2023-12-07T05:06:21;13.52;;;8.35;;
41837;SDS011;27511;52.042;5.178;2023-12-07T05:08:46;13.57;;;8.20;;
41837;SDS011;27511;52.042;5.178;2023-12-07T05:11:12;14.40;;;8.20;;
41837;SDS011;27511;52.042;5.178;2023-12-07T05:13:37;17.00;;;8.52;;
41837;SDS011;27511;52.042;5.178;2023-12-07T05:16:03;14.13;;;8.10;;
41837;SDS011;27511;52.042;5.178;2023-12-07T05:18:29;17.63;;;9.38;;
41837;SDS011;27511;52.042;5.178;2023-12-07T05:20:54;18.98;;;9.45;;
41837;SDS011;27511;52.042;5.178;2023-12-07T05:23:20;18.75;;;9.52;;
41837;SDS011;27511;52.042;5.178;2023-12-07T05:25:45;16.33;;;9.95;;
41837;SDS011;27511;52.042;5.178;2023-12-07T05:28:12;17.77;;;10.68;;
41837;SDS011;27511;52.042;5.178;2023-12-07T05:30:37;16.38;;;9.45;;
41837;SDS011;27511;52.042;5.178;2023-12-07T05:33:03;20.25;;;11.10;;
41837;SDS011;27511;52.042;5.178;2023-12-07T05:35:29;18.52;;;9.07;;
41837;SDS011;27511;52.042;5.178;2023-12-07T05:37:54;19.80;;;10.80;;
41837;SDS011;27511;52.042;5.178;2023-12-07T05:40:20;21.25;;;11.05;;
41837;SDS011;27511;52.042;5.178;2023-12-07T05:42:47;22.75;;;10.77;;
41837;SDS011;27511;52.042;5.178;2023-12-07T05:45:14;20.38;;;10.52;;
41837;SDS011;27511;52.042;5.178;2023-12-07T05:47:41;18.67;;;9.85;;
41837;SDS011;27511;52.042;5.178;2023-12-07T05:50:06;20.30;;;10.02;;
41837;SDS011;27511;52.042;5.178;2023-12-07T05:52:32;18.30;;;10.15;;
41837;SDS011;27511;52.042;5.178;2023-12-07T05:54:58;19.13;;;10.63;;
41837;SDS011;27511;52.042;5.178;2023-12-07T05:57:27;18.00;;;10.20;;
41837;SDS011;27511;52.042;5.178;2023-12-07T05:59:53;20.63;;;10.80;;
41837;SDS011;27511;52.042;5.178;2023-12-07T06:02:18;19.60;;;9.45;;
41837;SDS011;27511;52.042;5.178;2023-12-07T06:04:44;22.35;;;11.90;;
41837;SDS011;27511;52.042;5.178;2023-12-07T06:07:09;21.17;;;10.23;;
41837;SDS011;27511;52.042;5.178;2023-12-07T06:09:37;18.15;;;9.85;;
41837;SDS011;27511;52.042;5.178;2023-12-07T06:12:03;21.85;;;11.32;;
41837;SDS011;27511;52.042;5.178;2023-12-07T06:14:29;17.55;;;10.52;;
41837;SDS011;27511;52.042;5.178;2023-12-07T06:16:54;21.85;;;10.60;;
41837;SDS011;27511;52.042;5.178;2023-12-07T06:19:20;26.17;;;11.80;;
41837;SDS011;27511;52.042;5.178;2023-12-07T06:21:46;23.08;;;11.73;;
41837;SDS011;27511;52.042;5.178;2023-12-07T06:24:11;21.10;;;10.60;;
41837;SDS011;27511;52.042;5.178;2023-12-07T06:26:39;20.58;;;10.93;;
41837;SDS011;27511;52.042;5.178;2023-12-07T06:29:04;20.15;;;10.70;;
41837;SDS011;27511;52.042;5.178;2023-12-07T06:31:32;26.75;;;11.82;;
41837;SDS011;27511;52.042;5.178;2023-12-07T06:33:58;22.48;;;11.75;;
41837;SDS011;27511;52.042;5.178;2023-12-07T06:36:25;21.83;;;11.30;;
41837;SDS011;27511;52.042;5.178;2023-12-07T06:38:52;22.27;;;11.95;;
41837;SDS011;27511;52.042;5.178;2023-12-07T06:41:17;23.02;;;11.13;;
41837;SDS011;27511;52.042;5.178;2023-12-07T06:43:43;26.63;;;12.32;;
41837;SDS011;27511;52.042;5.178;2023-12-07T06:46:10;25.98;;;12.23;;
41837;SDS011;27511;52.042;5.178;2023-12-07T06:48:41;26.13;;;11.30;;
41837;SDS011;27511;52.042;5.178;2023-12-07T06:51:06;20.80;;;11.02;;
41837;SDS011;27511;52.042;5.178;2023-12-07T06:53:32;21.77;;;11.32;;
41837;SDS011;27511;52.042;5.178;2023-12-07T06:55:58;25.38;;;11.30;;
41837;SDS011;27511;52.042;5.178;2023-12-07T06:58:24;22.70;;;11.38;;
41837;SDS011;27511;52.042;5.178;2023-12-07T07:00:49;20.27;;;11.32;;
41837;SDS011;27511;52.042;5.178;2023-12-07T07:03:15;22.90;;;11.23;;
41837;SDS011;27511;52.042;5.178;2023-12-07T07:05:41;23.52;;;11.00;;
41837;SDS011;27511;52.042;5.178;2023-12-07T07:08:07;18.27;;;10.50;;
41837;SDS011;27511;52.042;5.178;2023-12-07T07:10:33;24.83;;;12.85;;
41837;SDS011;27511;52.042;5.178;2023-12-07T07:13:02;20.63;;;11.00;;
41837;SDS011;27511;52.042;5.178;2023-12-07T07:15:30;26.35;;;11.63;;
41837;SDS011;27511;52.042;5.178;2023-12-07T07:17:55;25.42;;;11.63;;
41837;SDS011;27511;52.042;5.178;2023-12-07T07:20:21;24.23;;;11.93;;
41837;SDS011;27511;52.042;5.178;2023-12-07T07:22:47;22.73;;;10.93;;
41837;SDS011;27511;52.042;5.178;2023-12-07T07:25:13;25.98;;;11.98;;
41837;SDS011;27511;52.042;5.178;2023-12-07T07:27:41;24.85;;;12.13;;
41837;SDS011;27511;52.042;5.178;2023-12-07T07:30:07;23.48;;;10.65;;
41837;SDS011;27511;52.042;5.178;2023-12-07T07:32:33;23.55;;;11.32;;
41837;SDS011;27511;52.042;5.178;2023-12-07T07:34:59;25.25;;;11.60;;
41837;SDS011;27511;52.042;5.178;2023-12-07T07:37:24;23.67;;;9.82;;
41837;SDS011;27511;52.042;5.178;2023-12-07T07:39:50;23.80;;;9.68;;
41837;SDS011;27511;52.042;5.178;2023-12-07T07:42:16;22.60;;;10.30;;
41837;SDS011;27511;52.042;5.178;2023-12-07T07:44:42;21.05;;;10.60;;
41837;SDS011;27511;52.042;5.178;2023-12-07T07:47:07;19.90;;;9.25;;
41837;SDS011;27511;52.042;5.178;2023-12-07T07:49:33;23.08;;;11.70;;
41837;SDS011;27511;52.042;5.178;2023-12-07T07:51:59;26.15;;;11.27;;
41837;SDS011;27511;52.042;5.178;2023-12-07T07:54:24;21.60;;;10.57;;
41837;SDS011;27511;52.042;5.178;2023-12-07T07:56:50;18.08;;;8.60;;
41837;SDS011;27511;52.042;5.178;2023-12-07T07:59:16;22.75;;;9.50;;
41837;SDS011;27511;52.042;5.178;2023-12-07T08:01:41;20.65;;;10.55;;
41837;SDS011;27511;52.042;5.178;2023-12-07T08:04:07;19.77;;;8.73;;
41837;SDS011;27511;52.042;5.178;2023-12-07T08:06:33;19.30;;;9.32;;
41837;SDS011;27511;52.042;5.178;2023-12-07T08:08:59;21.80;;;11.00;;
41837;SDS011;27511;52.042;5.178;2023-12-07T08:11:24;18.38;;;8.07;;
41837;SDS011;27511;52.042;5.178;2023-12-07T08:13:50;20.13;;;8.43;;
41837;SDS011;27511;52.042;5.178;2023-12-07T08:16:16;22.60;;;7.32;;
41837;SDS011;27511;52.042;5.178;2023-12-07T08:18:41;19.63;;;8.85;;
41837;SDS011;27511;52.042;5.178;2023-12-07T08:21:07;20.27;;;8.70;;
41837;SDS011;27511;52.042;5.178;2023-12-07T08:23:33;16.55;;;7.00;;
41837;SDS011;27511;52.042;5.178;2023-12-07T08:26:00;17.60;;;7.70;;
41837;SDS011;27511;52.042;5.178;2023-12-07T08:28:26;20.67;;;7.68;;
41837;SDS011;27511;52.042;5.178;2023-12-07T08:30:52;12.90;;;6.43;;
41837;SDS011;27511;52.042;5.178;2023-12-07T08:33:17;12.88;;;6.00;;
41837;SDS011;27511;52.042;5.178;2023-12-07T08:35:43;10.82;;;6.63;;
41837;SDS011;27511;52.042;5.178;2023-12-07T08:38:08;14.27;;;7.68;;
41837;SDS011;27511;52.042;5.178;2023-12-07T08:40:34;15.75;;;6.28;;
41837;SDS011;27511;52.042;5.178;2023-12-07T08:42:59;12.98;;;6.07;;
41837;SDS011;27511;52.042;5.178;2023-12-07T08:45:25;12.20;;;6.03;;
41837;SDS011;27511;52.042;5.178;2023-12-07T08:47:51;13.30;;;6.45;;
41837;SDS011;27511;52.042;5.178;2023-12-07T08:50:16;14.43;;;6.93;;
41837;SDS011;27511;52.042;5.178;2023-12-07T08:52:42;14.93;;;6.50;;
41837;SDS011;27511;52.042;5.178;2023-12-07T08:55:07;13.30;;;6.25;;
41837;SDS011;27511;52.042;5.178;2023-12-07T08:57:33;13.65;;;6.05;;
41837;SDS011;27511;52.042;5.178;2023-12-07T08:59:58;15.68;;;7.05;;
41837;SDS011;27511;52.042;5.178;2023-12-07T09:02:24;11.38;;;5.97;;
41837;SDS011;27511;52.042;5.178;2023-12-07T09:04:50;11.07;;;5.82;;
41837;SDS011;27511;52.042;5.178;2023-12-07T09:07:16;11.65;;;5.47;;
41837;SDS011;27511;52.042;5.178;2023-12-07T09:09:42;11.32;;;5.90;;
41837;SDS011;27511;52.042;5.178;2023-12-07T09:12:15;10.40;;;5.28;;
41837;SDS011;27511;52.042;5.178;2023-12-07T09:14:41;12.60;;;6.18;;
41837;SDS011;27511;52.042;5.178;2023-12-07T09:17:07;12.65;;;5.68;;
41837;SDS011;27511;52.042;5.178;2023-12-07T09:19:33;11.82;;;6.05;;
41837;SDS011;27511;52.042;5.178;2023-12-07T09:21:59;12.13;;;5.45;;
41837;SDS011;27511;52.042;5.178;2023-12-07T09:24:25;12.23;;;5.50;;
41837;SDS011;27511;52.042;5.178;2023-12-07T09:26:51;13.82;;;6.10;;
41837;SDS011;27511;52.042;5.178;2023-12-07T09:29:17;13.32;;;5.82;;
41837;SDS011;27511;52.042;5.178;2023-12-07T09:31:43;17.10;;;6.82;;
41837;SDS011;27511;52.042;5.178;2023-12-07T09:34:08;14.00;;;6.13;;
41837;SDS011;27511;52.042;5.178;2023-12-07T09:36:34;13.00;;;6.03;;
41837;SDS011;27511;52.042;5.178;2023-12-07T09:38:59;11.20;;;5.60;;
41837;SDS011;27511;52.042;5.178;2023-12-07T09:41:26;12.45;;;5.55;;
41837;SDS011;27511;52.042;5.178;2023-12-07T09:43:53;12.35;;;5.65;;
41837;SDS011;27511;52.042;5.178;2023-12-07T09:46:20;13.90;;;5.90;;
41837;SDS011;27511;52.042;5.178;2023-12-07T09:48:45;16.88;;;6.22;;
41837;SDS011;27511;52.042;5.178;2023-12-07T09:51:15;15.63;;;5.80;;
41837;SDS011;27511;52.042;5.178;2023-12-07T09:53:40;16.00;;;5.95;;
41837;SDS011;27511;52.042;5.178;2023-12-07T09:56:08;11.80;;;5.20;;
41837;SDS011;27511;52.042;5.178;2023-12-07T09:58:34;14.88;;;6.47;;
41837;SDS011;27511;52.042;5.178;2023-12-07T10:01:00;11.93;;;5.22;;
41837;SDS011;27511;52.042;5.178;2023-12-07T10:03:25;13.95;;;5.47;;
41837;SDS011;27511;52.042;5.178;2023-12-07T10:05:54;12.02;;;5.32;;
41837;SDS011;27511;52.042;5.178;2023-12-07T10:08:25;10.52;;;4.47;;
41837;SDS011;27511;52.042;5.178;2023-12-07T10:11:01;11.75;;;6.25;;
41837;SDS011;27511;52.042;5.178;2023-12-07T10:13:32;13.75;;;5.22;;
41837;SDS011;27511;52.042;5.178;2023-12-07T10:18:40;10.98;;;5.10;;
41837;SDS011;27511;52.042;5.178;2023-12-07T10:21:06;13.95;;;5.75;;
41837;SDS011;27511;52.042;5.178;2023-12-07T10:23:34;14.50;;;5.88;;
41837;SDS011;27511;52.042;5.178;2023-12-07T10:26:05;14.68;;;6.50;;
41837;SDS011;27511;52.042;5.178;2023-12-07T10:28:31;11.32;;;5.13;;
41837;SDS011;27511;52.042;5.178;2023-12-07T10:31:00;11.88;;;5.35;;
41837;SDS011;27511;52.042;5.178;2023-12-07T10:33:26;16.92;;;7.45;;
41837;SDS011;27511;52.042;5.178;2023-12-07T10:35:52;17.00;;;6.20;;
41837;SDS011;27511;52.042;5.178;2023-12-07T10:38:17;14.82;;;6.22;;
41837;SDS011;27511;52.042;5.178;2023-12-07T10:40:45;13.35;;;6.60;;
41837;SDS011;27511;52.042;5.178;2023-12-07T10:43:15;20.23;;;6.93;;
41837;SDS011;27511;52.042;5.178;2023-12-07T10:45:44;18.10;;;7.68;;
41837;SDS011;27511;52.042;5.178;2023-12-07T10:48:12;13.27;;;5.47;;
41837;SDS011;27511;52.042;5.178;2023-12-07T10:50:41;16.42;;;6.68;;
41837;SDS011;27511;52.042;5.178;2023-12-07T10:53:09;12.82;;;6.05;;
41837;SDS011;27511;52.042;5.178;2023-12-07T10:55:55;18.38;;;7.05;;
41837;SDS011;27511;52.042;5.178;2023-12-07T10:58:24;14.98;;;7.03;;
41837;SDS011;27511;52.042;5.178;2023-12-07T11:00:52;17.35;;;6.90;;
41837;SDS011;27511;52.042;5.178;2023-12-07T11:03:18;18.10;;;7.32;;
41837;SDS011;27511;52.042;5.178;2023-12-07T11:05:46;22.65;;;7.63;;
41837;SDS011;27511;52.042;5.178;2023-12-07T11:08:28;18.38;;;8.27;;
41837;SDS011;27511;52.042;5.178;2023-12-07T11:11:22;20.20;;;7.63;;
41837;SDS011;27511;52.042;5.178;2023-12-07T11:13:57;23.13;;;8.73;;
41837;SDS011;27511;52.042;5.178;2023-12-07T11:16:32;17.70;;;7.45;;
41837;SDS011;27511;52.042;5.178;2023-12-07T11:18:59;21.30;;;8.45;;
41837;SDS011;27511;52.042;5.178;2023-12-07T11:21:25;18.00;;;8.50;;
41837;SDS011;27511;52.042;5.178;2023-12-07T11:23:52;20.90;;;8.85;;
41837;SDS011;27511;52.042;5.178;2023-12-07T11:26:22;26.83;;;8.82;;
41837;SDS011;27511;52.042;5.178;2023-12-07T11:28:49;25.33;;;9.98;;
41837;SDS011;27511;52.042;5.178;2023-12-07T11:31:15;26.45;;;9.95;;
41837;SDS011;27511;52.042;5.178;2023-12-07T11:33:41;25.92;;;9.50;;
41837;SDS011;27511;52.042;5.178;2023-12-07T11:38:35;25.30;;;10.05;;
41837;SDS011;27511;52.042;5.178;2023-12-07T11:41:02;24.75;;;9.52;;
41837;SDS011;27511;52.042;5.178;2023-12-07T11:46:06;28.30;;;10.02;;
41837;SDS011;27511;52.042;5.178;2023-12-07T11:48:32;25.60;;;10.68;;
41837;SDS011;27511;52.042;5.178;2023-12-07T11:51:02;25.30;;;10.45;;
41837;SDS011;27511;52.042;5.178;2023-12-07T11:53:35;26.42;;;9.77;;
41837;SDS011;27511;52.042;5.178;2023-12-07T11:56:03;31.85;;;11.77;;
41837;SDS011;27511;52.042;5.178;2023-12-07T11:58:30;23.13;;;10.70;;
41837;SDS011;27511;52.042;5.178;2023-12-07T12:00:57;23.50;;;9.73;;
41837;SDS011;27511;52.042;5.178;2023-12-07T12:03:23;24.15;;;10.05;;
41837;SDS011;27511;52.042;5.178;2023-12-07T12:05:50;26.48;;;10.50;;
41837;SDS011;27511;52.042;5.178;2023-12-07T12:08:18;23.98;;;8.68;;
41837;SDS011;27511;52.042;5.178;2023-12-07T12:10:45;22.77;;;8.70;;
41837;SDS011;27511;52.042;5.178;2023-12-07T12:13:11;25.23;;;10.07;;
41837;SDS011;27511;52.042;5.178;2023-12-07T12:15:37;24.55;;;9.43;;
41837;SDS011;27511;52.042;5.178;2023-12-07T12:18:07;26.20;;;9.73;;
41837;SDS011;27511;52.042;5.178;2023-12-07T12:20:33;27.13;;;9.55;;
41837;SDS011;27511;52.042;5.178;2023-12-07T12:23:00;31.05;;;10.82;;
41837;SDS011;27511;52.042;5.178;2023-12-07T12:25:29;25.80;;;10.48;;
41837;SDS011;27511;52.042;5.178;2023-12-07T12:28:01;24.88;;;9.85;;
41837;SDS011;27511;52.042;5.178;2023-12-07T12:30:28;30.02;;;10.35;;
41837;SDS011;27511;52.042;5.178;2023-12-07T12:32:54;30.70;;;10.07;;
41837;SDS011;27511;52.042;5.178;2023-12-07T12:35:21;26.83;;;10.48;;
41837;SDS011;27511;52.042;5.178;2023-12-07T12:37:47;32.63;;;11.73;;
41837;SDS011;27511;52.042;5.178;2023-12-07T12:40:15;29.35;;;11.88;;
41837;SDS011;27511;52.042;5.178;2023-12-07T12:42:43;24.98;;;10.90;;
41837;SDS011;27511;52.042;5.178;2023-12-07T12:45:14;25.10;;;10.80;;
41837;SDS011;27511;52.042;5.178;2023-12-07T12:47:40;27.30;;;10.77;;
41837;SDS011;27511;52.042;5.178;2023-12-07T12:50:08;30.00;;;11.63;;
41837;SDS011;27511;52.042;5.178;2023-12-07T12:52:35;28.95;;;11.60;;
41837;SDS011;27511;52.042;5.178;2023-12-07T12:55:01;30.77;;;12.60;;
41837;SDS011;27511;52.042;5.178;2023-12-07T12:57:28;26.92;;;11.50;;
41837;SDS011;27511;52.042;5.178;2023-12-07T12:59:53;34.00;;;12.38;;
41837;SDS011;27511;52.042;5.178;2023-12-07T13:02:19;35.58;;;11.45;;
41837;SDS011;27511;52.042;5.178;2023-12-07T13:04:46;33.45;;;11.98;;
41837;SDS011;27511;52.042;5.178;2023-12-07T13:07:12;27.10;;;11.55;;
41837;SDS011;27511;52.042;5.178;2023-12-07T13:09:38;30.00;;;12.20;;
41837;SDS011;27511;52.042;5.178;2023-12-07T13:12:04;27.55;;;11.68;;
41837;SDS011;27511;52.042;5.178;2023-12-07T13:14:30;29.85;;;13.10;;
41837;SDS011;27511;52.042;5.178;2023-12-07T13:16:57;30.83;;;12.65;;
41837;SDS011;27511;52.042;5.178;2023-12-07T13:19:22;29.73;;;12.73;;
41837;SDS011;27511;52.042;5.178;2023-12-07T13:21:48;30.00;;;12.60;;
41837;SDS011;27511;52.042;5.178;2023-12-07T13:24:14;35.10;;;12.57;;
41837;SDS011;27511;52.042;5.178;2023-12-07T13:26:39;32.58;;;12.10;;
41837;SDS011;27511;52.042;5.178;2023-12-07T13:29:05;24.63;;;11.05;;
41837;SDS011;27511;52.042;5.178;2023-12-07T13:31:32;31.83;;;13.27;;
41837;SDS011;27511;52.042;5.178;2023-12-07T13:33:59;25.75;;;10.85;;
41837;SDS011;27511;52.042;5.178;2023-12-07T13:36:24;31.73;;;12.07;;
41837;SDS011;27511;52.042;5.178;2023-12-07T13:38:54;22.90;;;11.23;;
41837;SDS011;27511;52.042;5.178;2023-12-07T13:41:20;25.50;;;12.63;;
41837;SDS011;27511;52.042;5.178;2023-12-07T13:43:45;24.92;;;10.75;;
41837;SDS011;27511;52.042;5.178;2023-12-07T13:46:13;25.73;;;10.90;;
41837;SDS011;27511;52.042;5.178;2023-12-07T13:48:39;27.83;;;11.15;;
41837;SDS011;27511;52.042;5.178;2023-12-07T13:51:05;23.05;;;11.25;;
41837;SDS011;27511;52.042;5.178;2023-12-07T13:53:31;22.25;;;10.98;;
41837;SDS011;27511;52.042;5.178;2023-12-07T13:55:56;25.25;;;11.43;;
41837;SDS011;27511;52.042;5.178;2023-12-07T13:58:22;24.80;;;11.32;;
41837;SDS011;27511;52.042;5.178;2023-12-07T14:00:47;26.20;;;11.38;;
41837;SDS011;27511;52.042;5.178;2023-12-07T14:03:13;26.98;;;11.68;;
41837;SDS011;27511;52.042;5.178;2023-12-07T14:05:39;24.63;;;11.07;;
41837;SDS011;27511;52.042;5.178;2023-12-07T14:08:04;21.40;;;10.20;;
41837;SDS011;27511;52.042;5.178;2023-12-07T14:10:30;26.95;;;11.95;;
41837;SDS011;27511;52.042;5.178;2023-12-07T14:12:56;25.95;;;11.60;;
41837;SDS011;27511;52.042;5.178;2023-12-07T14:15:21;26.75;;;12.98;;
41837;SDS011;27511;52.042;5.178;2023-12-07T14:17:47;26.83;;;12.13;;
41837;SDS011;27511;52.042;5.178;2023-12-07T14:20:13;33.42;;;13.82;;
41837;SDS011;27511;52.042;5.178;2023-12-07T14:22:39;26.77;;;12.40;;
41837;SDS011;27511;52.042;5.178;2023-12-07T14:25:04;30.80;;;13.10;;
41837;SDS011;27511;52.042;5.178;2023-12-07T14:27:30;34.53;;;13.38;;
41837;SDS011;27511;52.042;5.178;2023-12-07T14:29:56;33.47;;;14.52;;
41837;SDS011;27511;52.042;5.178;2023-12-07T14:32:21;37.03;;;14.40;;
41837;SDS011;27511;52.042;5.178;2023-12-07T14:34:47;34.95;;;14.45;;
41837;SDS011;27511;52.042;5.178;2023-12-07T14:37:13;28.80;;;13.82;;